sensor_id;sensor_type;location;lat;lon;timestamp;P1;durP1;ratioP1;P2;durP2;ratioP2
10132;SDS011;5106;50.926;7.080;2022-12-01T00:02:12;12.27;;;7.50;;
10132;SDS011;5106;50.926;7.080;2022-12-01T00:04:38;11.70;;;7.77;;
10132;SDS011;5106;50.926;7.080;2022-12-01T00:07:03;10.13;;;7.57;;
10132;SDS011;5106;50.926;7.080;2022-12-01T00:09:29;10.43;;;7.13;;
10132;SDS011;5106;50.926;7.080;2022-12-01T00:12:13;10.07;;;7.27;;
10132;SDS011;5106;50.926;7.080;2022-12-01T00:14:39;10.70;;;7.70;;
10132;SDS011;5106;50.926;7.080;2022-12-01T00:17:04;10.30;;;7.03;;
10132;SDS011;5106;50.926;7.080;2022-12-01T00:19:30;10.13;;;7.03;;
10132;SDS011;5106;50.926;7.080;2022-12-01T00:21:55;9.27;;;7.37;;
10132;SDS011;5106;50.926;7.080;2022-12-01T00:24:21;9.53;;;6.70;;
10132;SDS011;5106;50.926;7.080;2022-12-01T00:26:47;10.83;;;7.23;;
10132;SDS011;5106;50.926;7.080;2022-12-01T00:29:13;11.00;;;7.33;;
10132;SDS011;5106;50.926;7.080;2022-12-01T00:31:39;9.67;;;7.33;;
10132;SDS011;5106;50.926;7.080;2022-12-01T00:34:05;9.17;;;7.20;;
10132;SDS011;5106;50.926;7.080;2022-12-01T00:36:31;10.97;;;7.57;;
10132;SDS011;5106;50.926;7.080;2022-12-01T00:38:56;12.60;;;7.97;;
10132;SDS011;5106;50.926;7.080;2022-12-01T00:41:22;10.83;;;7.30;;
10132;SDS011;5106;50.926;7.080;2022-12-01T00:43:49;8.43;;;7.20;;
10132;SDS011;5106;50.926;7.080;2022-12-01T00:46:15;8.93;;;6.90;;
10132;SDS011;5106;50.926;7.080;2022-12-01T00:48:41;9.17;;;7.13;;
10132;SDS011;5106;50.926;7.080;2022-12-01T00:51:06;9.87;;;7.50;;
10132;SDS011;5106;50.926;7.080;2022-12-01T00:53:32;8.50;;;6.83;;
10132;SDS011;5106;50.926;7.080;2022-12-01T00:55:57;8.80;;;6.63;;
10132;SDS011;5106;50.926;7.080;2022-12-01T00:58:23;8.87;;;7.00;;
10132;SDS011;5106;50.926;7.080;2022-12-01T01:00:56;8.47;;;6.43;;
10132;SDS011;5106;50.926;7.080;2022-12-01T01:03:23;9.93;;;6.50;;
10132;SDS011;5106;50.926;7.080;2022-12-01T01:05:49;8.83;;;7.00;;
10132;SDS011;5106;50.926;7.080;2022-12-01T01:08:15;9.07;;;6.93;;
10132;SDS011;5106;50.926;7.080;2022-12-01T01:10:41;8.67;;;6.63;;
10132;SDS011;5106;50.926;7.080;2022-12-01T01:13:08;10.07;;;6.60;;
10132;SDS011;5106;50.926;7.080;2022-12-01T01:15:34;11.37;;;7.03;;
10132;SDS011;5106;50.926;7.080;2022-12-01T01:18:00;9.47;;;6.80;;
10132;SDS011;5106;50.926;7.080;2022-12-01T01:20:25;9.93;;;6.77;;
10132;SDS011;5106;50.926;7.080;2022-12-01T01:22:51;10.70;;;7.40;;
10132;SDS011;5106;50.926;7.080;2022-12-01T01:25:17;10.00;;;7.33;;
10132;SDS011;5106;50.926;7.080;2022-12-01T01:27:42;9.53;;;7.47;;
10132;SDS011;5106;50.926;7.080;2022-12-01T01:30:08;11.00;;;7.90;;
10132;SDS011;5106;50.926;7.080;2022-12-01T01:32:34;12.57;;;8.00;;
10132;SDS011;5106;50.926;7.080;2022-12-01T01:35:00;12.10;;;8.97;;
10132;SDS011;5106;50.926;7.080;2022-12-01T01:37:25;12.43;;;8.37;;
10132;SDS011;5106;50.926;7.080;2022-12-01T01:39:51;11.47;;;8.63;;
10132;SDS011;5106;50.926;7.080;2022-12-01T01:42:17;10.70;;;8.10;;
10132;SDS011;5106;50.926;7.080;2022-12-01T01:44:54;11.50;;;8.30;;
10132;SDS011;5106;50.926;7.080;2022-12-01T01:47:29;13.37;;;8.37;;
10132;SDS011;5106;50.926;7.080;2022-12-01T01:50:03;12.57;;;9.23;;
10132;SDS011;5106;50.926;7.080;2022-12-01T01:52:34;11.03;;;8.67;;
10132;SDS011;5106;50.926;7.080;2022-12-01T01:55:02;12.63;;;9.10;;
10132;SDS011;5106;50.926;7.080;2022-12-01T01:57:29;11.40;;;8.53;;
10132;SDS011;5106;50.926;7.080;2022-12-01T01:59:58;12.67;;;9.00;;
10132;SDS011;5106;50.926;7.080;2022-12-01T02:02:28;11.33;;;8.93;;
10132;SDS011;5106;50.926;7.080;2022-12-01T02:04:56;13.23;;;9.90;;
10132;SDS011;5106;50.926;7.080;2022-12-01T02:07:25;12.57;;;9.10;;
10132;SDS011;5106;50.926;7.080;2022-12-01T02:09:51;12.90;;;8.70;;
10132;SDS011;5106;50.926;7.080;2022-12-01T02:15:07;14.70;;;9.43;;
10132;SDS011;5106;50.926;7.080;2022-12-01T02:17:37;12.90;;;9.30;;
10132;SDS011;5106;50.926;7.080;2022-12-01T02:34:23;14.33;;;10.13;;
10132;SDS011;5106;50.926;7.080;2022-12-01T02:36:57;15.27;;;10.17;;
10132;SDS011;5106;50.926;7.080;2022-12-01T02:39:58;15.00;;;10.53;;
10132;SDS011;5106;50.926;7.080;2022-12-01T02:42:32;16.57;;;10.73;;
10132;SDS011;5106;50.926;7.080;2022-12-01T02:45:14;15.33;;;11.10;;
10132;SDS011;5106;50.926;7.080;2022-12-01T02:47:50;16.20;;;11.13;;
10132;SDS011;5106;50.926;7.080;2022-12-01T02:50:20;16.67;;;10.97;;
10132;SDS011;5106;50.926;7.080;2022-12-01T02:52:47;17.80;;;11.83;;
10132;SDS011;5106;50.926;7.080;2022-12-01T02:55:13;16.80;;;11.10;;
10132;SDS011;5106;50.926;7.080;2022-12-01T02:57:39;16.50;;;11.73;;
10132;SDS011;5106;50.926;7.080;2022-12-01T03:00:04;19.63;;;11.90;;
10132;SDS011;5106;50.926;7.080;2022-12-01T03:05:41;20.00;;;12.47;;
10132;SDS011;5106;50.926;7.080;2022-12-01T03:08:34;17.37;;;11.70;;
10132;SDS011;5106;50.926;7.080;2022-12-01T03:11:11;18.73;;;12.00;;
10132;SDS011;5106;50.926;7.080;2022-12-01T03:16:24;19.53;;;12.60;;
10132;SDS011;5106;50.926;7.080;2022-12-01T03:19:00;20.63;;;12.33;;
10132;SDS011;5106;50.926;7.080;2022-12-01T03:24:14;20.87;;;13.00;;
10132;SDS011;5106;50.926;7.080;2022-12-01T03:26:44;20.90;;;12.83;;
10132;SDS011;5106;50.926;7.080;2022-12-01T03:29:15;22.20;;;12.93;;
10132;SDS011;5106;50.926;7.080;2022-12-01T03:31:47;17.47;;;11.57;;
10132;SDS011;5106;50.926;7.080;2022-12-01T03:37:19;18.30;;;12.00;;
10132;SDS011;5106;50.926;7.080;2022-12-01T03:39:56;19.10;;;12.37;;
10132;SDS011;5106;50.926;7.080;2022-12-01T03:42:25;19.87;;;12.87;;
10132;SDS011;5106;50.926;7.080;2022-12-01T03:45:15;17.00;;;11.83;;
10132;SDS011;5106;50.926;7.080;2022-12-01T03:47:46;17.87;;;11.90;;
10132;SDS011;5106;50.926;7.080;2022-12-01T03:50:12;19.90;;;12.47;;
10132;SDS011;5106;50.926;7.080;2022-12-01T03:55:10;16.53;;;11.40;;
10132;SDS011;5106;50.926;7.080;2022-12-01T04:00:18;15.97;;;10.90;;
10132;SDS011;5106;50.926;7.080;2022-12-01T04:02:44;17.27;;;11.10;;
10132;SDS011;5106;50.926;7.080;2022-12-01T04:05:11;18.10;;;11.00;;
10132;SDS011;5106;50.926;7.080;2022-12-01T04:07:37;15.57;;;11.00;;
10132;SDS011;5106;50.926;7.080;2022-12-01T04:10:03;19.50;;;12.23;;
10132;SDS011;5106;50.926;7.080;2022-12-01T04:12:30;13.90;;;10.97;;
10132;SDS011;5106;50.926;7.080;2022-12-01T04:15:03;16.03;;;11.00;;
10132;SDS011;5106;50.926;7.080;2022-12-01T04:17:32;17.20;;;11.77;;
10132;SDS011;5106;50.926;7.080;2022-12-01T04:19:58;17.30;;;11.43;;
10132;SDS011;5106;50.926;7.080;2022-12-01T04:22:24;16.90;;;11.80;;
10132;SDS011;5106;50.926;7.080;2022-12-01T04:24:50;17.57;;;11.87;;
10132;SDS011;5106;50.926;7.080;2022-12-01T04:27:16;17.20;;;11.17;;
10132;SDS011;5106;50.926;7.080;2022-12-01T04:29:42;19.57;;;10.80;;
10132;SDS011;5106;50.926;7.080;2022-12-01T04:32:08;15.93;;;11.10;;
10132;SDS011;5106;50.926;7.080;2022-12-01T04:34:33;16.87;;;11.60;;
10132;SDS011;5106;50.926;7.080;2022-12-01T04:36:59;18.43;;;11.87;;
10132;SDS011;5106;50.926;7.080;2022-12-01T04:39:24;18.37;;;11.37;;
10132;SDS011;5106;50.926;7.080;2022-12-01T04:41:50;18.60;;;11.77;;
10132;SDS011;5106;50.926;7.080;2022-12-01T04:44:16;20.27;;;12.83;;
10132;SDS011;5106;50.926;7.080;2022-12-01T04:46:41;19.83;;;12.27;;
10132;SDS011;5106;50.926;7.080;2022-12-01T04:49:07;21.63;;;13.00;;
10132;SDS011;5106;50.926;7.080;2022-12-01T04:51:33;19.97;;;13.27;;
10132;SDS011;5106;50.926;7.080;2022-12-01T04:54:00;21.13;;;13.20;;
10132;SDS011;5106;50.926;7.080;2022-12-01T04:56:26;20.90;;;13.17;;
10132;SDS011;5106;50.926;7.080;2022-12-01T04:58:52;20.67;;;13.57;;
10132;SDS011;5106;50.926;7.080;2022-12-01T05:01:18;22.07;;;13.00;;
10132;SDS011;5106;50.926;7.080;2022-12-01T05:03:44;24.27;;;15.13;;
10132;SDS011;5106;50.926;7.080;2022-12-01T05:06:14;25.20;;;14.17;;
10132;SDS011;5106;50.926;7.080;2022-12-01T05:08:41;22.43;;;15.03;;
10132;SDS011;5106;50.926;7.080;2022-12-01T05:11:08;22.53;;;14.27;;
10132;SDS011;5106;50.926;7.080;2022-12-01T05:13:36;22.77;;;14.43;;
10132;SDS011;5106;50.926;7.080;2022-12-01T05:18:33;24.00;;;13.40;;
10132;SDS011;5106;50.926;7.080;2022-12-01T05:20:59;21.57;;;13.83;;
10132;SDS011;5106;50.926;7.080;2022-12-01T05:23:28;25.80;;;14.80;;
10132;SDS011;5106;50.926;7.080;2022-12-01T05:25:55;24.13;;;14.47;;
10132;SDS011;5106;50.926;7.080;2022-12-01T05:28:22;24.43;;;14.37;;
10132;SDS011;5106;50.926;7.080;2022-12-01T05:30:49;22.00;;;14.27;;
10132;SDS011;5106;50.926;7.080;2022-12-01T05:33:15;24.07;;;15.13;;
10132;SDS011;5106;50.926;7.080;2022-12-01T05:35:41;23.23;;;15.03;;
10132;SDS011;5106;50.926;7.080;2022-12-01T05:38:06;23.90;;;14.57;;
10132;SDS011;5106;50.926;7.080;2022-12-01T05:40:32;23.80;;;14.87;;
10132;SDS011;5106;50.926;7.080;2022-12-01T05:42:59;24.43;;;14.10;;
10132;SDS011;5106;50.926;7.080;2022-12-01T05:45:25;24.27;;;15.27;;
10132;SDS011;5106;50.926;7.080;2022-12-01T05:47:54;25.70;;;14.90;;
10132;SDS011;5106;50.926;7.080;2022-12-01T05:50:20;21.77;;;14.37;;
10132;SDS011;5106;50.926;7.080;2022-12-01T05:52:46;23.33;;;14.87;;
10132;SDS011;5106;50.926;7.080;2022-12-01T05:55:11;22.50;;;14.50;;
10132;SDS011;5106;50.926;7.080;2022-12-01T05:57:37;27.97;;;16.10;;
10132;SDS011;5106;50.926;7.080;2022-12-01T06:00:03;24.57;;;16.23;;
10132;SDS011;5106;50.926;7.080;2022-12-01T06:02:30;24.50;;;15.10;;
10132;SDS011;5106;50.926;7.080;2022-12-01T06:04:56;23.57;;;14.77;;
10132;SDS011;5106;50.926;7.080;2022-12-01T06:07:22;24.77;;;15.30;;
10132;SDS011;5106;50.926;7.080;2022-12-01T06:09:49;25.93;;;15.07;;
10132;SDS011;5106;50.926;7.080;2022-12-01T06:12:16;24.53;;;14.63;;
10132;SDS011;5106;50.926;7.080;2022-12-01T06:14:42;24.20;;;15.43;;
10132;SDS011;5106;50.926;7.080;2022-12-01T06:17:07;24.63;;;13.43;;
10132;SDS011;5106;50.926;7.080;2022-12-01T06:19:33;26.07;;;14.20;;
10132;SDS011;5106;50.926;7.080;2022-12-01T06:21:58;22.37;;;14.20;;
10132;SDS011;5106;50.926;7.080;2022-12-01T06:24:24;23.87;;;14.57;;
10132;SDS011;5106;50.926;7.080;2022-12-01T06:26:49;22.57;;;14.23;;
10132;SDS011;5106;50.926;7.080;2022-12-01T06:29:15;22.37;;;14.10;;
10132;SDS011;5106;50.926;7.080;2022-12-01T06:31:41;20.63;;;13.40;;
10132;SDS011;5106;50.926;7.080;2022-12-01T06:34:07;23.30;;;13.70;;
10132;SDS011;5106;50.926;7.080;2022-12-01T06:36:32;20.47;;;13.33;;
10132;SDS011;5106;50.926;7.080;2022-12-01T06:38:58;21.53;;;13.80;;
10132;SDS011;5106;50.926;7.080;2022-12-01T06:41:24;21.80;;;13.60;;
10132;SDS011;5106;50.926;7.080;2022-12-01T06:43:49;21.23;;;14.17;;
10132;SDS011;5106;50.926;7.080;2022-12-01T06:46:15;19.73;;;13.67;;
10132;SDS011;5106;50.926;7.080;2022-12-01T06:48:40;19.43;;;13.03;;
10132;SDS011;5106;50.926;7.080;2022-12-01T06:51:06;19.83;;;13.37;;
10132;SDS011;5106;50.926;7.080;2022-12-01T06:53:32;22.20;;;13.30;;
10132;SDS011;5106;50.926;7.080;2022-12-01T06:55:58;20.43;;;13.37;;
10132;SDS011;5106;50.926;7.080;2022-12-01T06:58:25;19.93;;;13.80;;
10132;SDS011;5106;50.926;7.080;2022-12-01T07:00:50;19.93;;;13.07;;
10132;SDS011;5106;50.926;7.080;2022-12-01T07:03:16;21.03;;;13.73;;
10132;SDS011;5106;50.926;7.080;2022-12-01T07:05:41;19.60;;;12.73;;
10132;SDS011;5106;50.926;7.080;2022-12-01T07:08:07;21.83;;;14.00;;
10132;SDS011;5106;50.926;7.080;2022-12-01T07:10:33;22.47;;;13.87;;
10132;SDS011;5106;50.926;7.080;2022-12-01T07:12:58;20.30;;;13.60;;
10132;SDS011;5106;50.926;7.080;2022-12-01T07:15:24;20.37;;;13.33;;
10132;SDS011;5106;50.926;7.080;2022-12-01T07:17:49;20.83;;;13.90;;
10132;SDS011;5106;50.926;7.080;2022-12-01T07:20:15;22.23;;;13.10;;
10132;SDS011;5106;50.926;7.080;2022-12-01T07:22:41;21.03;;;13.60;;
10132;SDS011;5106;50.926;7.080;2022-12-01T07:25:09;22.33;;;13.50;;
10132;SDS011;5106;50.926;7.080;2022-12-01T07:27:35;23.50;;;14.80;;
10132;SDS011;5106;50.926;7.080;2022-12-01T07:30:00;21.47;;;13.90;;
10132;SDS011;5106;50.926;7.080;2022-12-01T07:32:26;22.47;;;14.23;;
10132;SDS011;5106;50.926;7.080;2022-12-01T07:34:52;23.47;;;14.03;;
10132;SDS011;5106;50.926;7.080;2022-12-01T07:37:17;21.57;;;12.93;;
10132;SDS011;5106;50.926;7.080;2022-12-01T07:39:43;20.87;;;12.93;;
10132;SDS011;5106;50.926;7.080;2022-12-01T07:42:09;22.77;;;14.67;;
10132;SDS011;5106;50.926;7.080;2022-12-01T07:44:34;20.20;;;13.40;;
10132;SDS011;5106;50.926;7.080;2022-12-01T07:47:00;21.57;;;13.77;;
10132;SDS011;5106;50.926;7.080;2022-12-01T07:49:25;22.27;;;13.80;;
10132;SDS011;5106;50.926;7.080;2022-12-01T07:51:51;20.83;;;13.17;;
10132;SDS011;5106;50.926;7.080;2022-12-01T07:54:17;24.07;;;14.23;;
10132;SDS011;5106;50.926;7.080;2022-12-01T07:56:44;21.30;;;13.33;;
10132;SDS011;5106;50.926;7.080;2022-12-01T07:59:10;19.37;;;12.97;;
10132;SDS011;5106;50.926;7.080;2022-12-01T08:01:36;21.87;;;13.13;;
10132;SDS011;5106;50.926;7.080;2022-12-01T08:04:02;24.57;;;14.00;;
10132;SDS011;5106;50.926;7.080;2022-12-01T08:06:28;22.93;;;13.30;;
10132;SDS011;5106;50.926;7.080;2022-12-01T08:08:54;24.60;;;14.07;;
10132;SDS011;5106;50.926;7.080;2022-12-01T08:11:24;19.73;;;11.80;;
10132;SDS011;5106;50.926;7.080;2022-12-01T08:13:53;19.10;;;12.00;;
10132;SDS011;5106;50.926;7.080;2022-12-01T08:16:19;18.03;;;12.10;;
10132;SDS011;5106;50.926;7.080;2022-12-01T08:18:46;18.57;;;12.10;;
10132;SDS011;5106;50.926;7.080;2022-12-01T08:21:14;19.80;;;12.03;;
10132;SDS011;5106;50.926;7.080;2022-12-01T08:23:51;16.13;;;11.33;;
10132;SDS011;5106;50.926;7.080;2022-12-01T08:26:18;17.17;;;11.07;;
10132;SDS011;5106;50.926;7.080;2022-12-01T08:28:44;16.30;;;11.53;;
10132;SDS011;5106;50.926;7.080;2022-12-01T08:33:38;20.00;;;11.87;;
10132;SDS011;5106;50.926;7.080;2022-12-01T08:36:04;16.77;;;10.80;;
10132;SDS011;5106;50.926;7.080;2022-12-01T08:38:30;18.90;;;11.33;;
10132;SDS011;5106;50.926;7.080;2022-12-01T08:41:00;21.13;;;13.00;;
10132;SDS011;5106;50.926;7.080;2022-12-01T08:43:26;20.27;;;12.87;;
10132;SDS011;5106;50.926;7.080;2022-12-01T08:45:56;20.77;;;13.43;;
10132;SDS011;5106;50.926;7.080;2022-12-01T08:48:23;19.83;;;13.27;;
10132;SDS011;5106;50.926;7.080;2022-12-01T08:50:48;21.07;;;13.50;;
10132;SDS011;5106;50.926;7.080;2022-12-01T08:53:14;21.20;;;13.53;;
10132;SDS011;5106;50.926;7.080;2022-12-01T08:55:39;20.07;;;13.27;;
10132;SDS011;5106;50.926;7.080;2022-12-01T08:58:05;19.10;;;12.70;;
10132;SDS011;5106;50.926;7.080;2022-12-01T09:00:31;21.17;;;13.43;;
10132;SDS011;5106;50.926;7.080;2022-12-01T09:02:56;20.63;;;13.27;;
10132;SDS011;5106;50.926;7.080;2022-12-01T09:05:22;17.17;;;11.53;;
10132;SDS011;5106;50.926;7.080;2022-12-01T09:07:47;18.73;;;13.47;;
10132;SDS011;5106;50.926;7.080;2022-12-01T09:10:33;21.30;;;12.30;;
10132;SDS011;5106;50.926;7.080;2022-12-01T09:12:58;18.23;;;11.80;;
10132;SDS011;5106;50.926;7.080;2022-12-01T09:15:24;19.63;;;12.37;;
10132;SDS011;5106;50.926;7.080;2022-12-01T09:17:50;16.97;;;11.43;;
10132;SDS011;5106;50.926;7.080;2022-12-01T09:20:15;18.20;;;11.30;;
10132;SDS011;5106;50.926;7.080;2022-12-01T09:22:41;18.07;;;11.13;;
10132;SDS011;5106;50.926;7.080;2022-12-01T09:25:06;18.17;;;11.47;;
10132;SDS011;5106;50.926;7.080;2022-12-01T09:27:38;15.80;;;10.37;;
10132;SDS011;5106;50.926;7.080;2022-12-01T09:30:04;16.83;;;11.13;;
10132;SDS011;5106;50.926;7.080;2022-12-01T09:32:33;14.60;;;10.07;;
10132;SDS011;5106;50.926;7.080;2022-12-01T09:34:58;16.30;;;10.70;;
10132;SDS011;5106;50.926;7.080;2022-12-01T09:37:24;13.77;;;10.83;;
10132;SDS011;5106;50.926;7.080;2022-12-01T09:39:49;17.00;;;10.20;;
10132;SDS011;5106;50.926;7.080;2022-12-01T09:42:15;13.87;;;9.10;;
10132;SDS011;5106;50.926;7.080;2022-12-01T09:44:44;13.33;;;9.57;;
10132;SDS011;5106;50.926;7.080;2022-12-01T09:47:18;12.97;;;8.97;;
10132;SDS011;5106;50.926;7.080;2022-12-01T09:52:22;13.33;;;9.03;;
10132;SDS011;5106;50.926;7.080;2022-12-01T09:54:49;11.00;;;8.60;;
10132;SDS011;5106;50.926;7.080;2022-12-01T09:59:56;11.43;;;8.10;;
10132;SDS011;5106;50.926;7.080;2022-12-01T10:05:04;11.03;;;8.40;;
10132;SDS011;5106;50.926;7.080;2022-12-01T10:07:37;10.47;;;7.47;;
10132;SDS011;5106;50.926;7.080;2022-12-01T10:10:12;12.33;;;8.37;;
10132;SDS011;5106;50.926;7.080;2022-12-01T10:12:41;11.10;;;7.93;;
10132;SDS011;5106;50.926;7.080;2022-12-01T10:15:23;10.07;;;7.27;;
10132;SDS011;5106;50.926;7.080;2022-12-01T10:18:02;11.20;;;7.23;;
10132;SDS011;5106;50.926;7.080;2022-12-01T10:20:58;9.37;;;7.10;;
10132;SDS011;5106;50.926;7.080;2022-12-01T10:26:20;7.63;;;6.17;;
10132;SDS011;5106;50.926;7.080;2022-12-01T10:29:15;8.80;;;6.53;;
10132;SDS011;5106;50.926;7.080;2022-12-01T10:31:56;9.13;;;6.30;;
10132;SDS011;5106;50.926;7.080;2022-12-01T10:34:26;8.40;;;6.10;;
10132;SDS011;5106;50.926;7.080;2022-12-01T10:36:56;8.53;;;5.80;;
10132;SDS011;5106;50.926;7.080;2022-12-01T10:39:29;7.40;;;5.87;;
10132;SDS011;5106;50.926;7.080;2022-12-01T10:42:04;9.63;;;5.97;;
10132;SDS011;5106;50.926;7.080;2022-12-01T10:44:32;8.37;;;6.07;;
10132;SDS011;5106;50.926;7.080;2022-12-01T10:46:58;8.20;;;6.07;;
10132;SDS011;5106;50.926;7.080;2022-12-01T10:49:39;8.43;;;6.23;;
10132;SDS011;5106;50.926;7.080;2022-12-01T10:52:06;8.80;;;5.93;;
10132;SDS011;5106;50.926;7.080;2022-12-01T10:54:36;7.27;;;5.87;;
10132;SDS011;5106;50.926;7.080;2022-12-01T10:57:03;8.87;;;6.77;;
10132;SDS011;5106;50.926;7.080;2022-12-01T11:02:13;9.13;;;6.73;;
10132;SDS011;5106;50.926;7.080;2022-12-01T11:04:49;9.50;;;6.53;;
10132;SDS011;5106;50.926;7.080;2022-12-01T11:07:23;11.57;;;7.57;;
10132;SDS011;5106;50.926;7.080;2022-12-01T11:12:42;10.07;;;7.07;;
10132;SDS011;5106;50.926;7.080;2022-12-01T11:15:20;10.30;;;7.37;;
10132;SDS011;5106;50.926;7.080;2022-12-01T11:20:47;8.57;;;6.80;;
10132;SDS011;5106;50.926;7.080;2022-12-01T11:23:45;8.43;;;7.10;;
10132;SDS011;5106;50.926;7.080;2022-12-01T11:28:52;11.50;;;7.80;;
10132;SDS011;5106;50.926;7.080;2022-12-01T11:31:18;10.13;;;7.83;;
10132;SDS011;5106;50.926;7.080;2022-12-01T11:33:48;11.77;;;8.13;;
10132;SDS011;5106;50.926;7.080;2022-12-01T11:36:21;13.97;;;9.00;;
10132;SDS011;5106;50.926;7.080;2022-12-01T11:39:16;11.87;;;8.83;;
10132;SDS011;5106;50.926;7.080;2022-12-01T11:42:12;12.83;;;9.27;;
10132;SDS011;5106;50.926;7.080;2022-12-01T11:44:51;13.13;;;9.13;;
10132;SDS011;5106;50.926;7.080;2022-12-01T11:47:24;14.97;;;10.27;;
10132;SDS011;5106;50.926;7.080;2022-12-01T11:49:53;12.90;;;10.00;;
10132;SDS011;5106;50.926;7.080;2022-12-01T11:52:25;14.03;;;10.47;;
10132;SDS011;5106;50.926;7.080;2022-12-01T11:54:55;13.53;;;10.40;;
10132;SDS011;5106;50.926;7.080;2022-12-01T11:57:21;17.40;;;10.87;;
10132;SDS011;5106;50.926;7.080;2022-12-01T11:59:47;16.13;;;11.13;;
10132;SDS011;5106;50.926;7.080;2022-12-01T12:05:08;14.63;;;10.67;;
10132;SDS011;5106;50.926;7.080;2022-12-01T12:08:02;15.20;;;11.40;;
10132;SDS011;5106;50.926;7.080;2022-12-01T12:11:01;16.30;;;11.10;;
10132;SDS011;5106;50.926;7.080;2022-12-01T12:27:49;17.30;;;11.53;;
10132;SDS011;5106;50.926;7.080;2022-12-01T12:30:41;16.00;;;11.30;;
10132;SDS011;5106;50.926;7.080;2022-12-01T12:33:40;17.37;;;11.50;;
10132;SDS011;5106;50.926;7.080;2022-12-01T12:50:07;18.83;;;13.33;;
10132;SDS011;5106;50.926;7.080;2022-12-01T12:52:37;18.67;;;13.10;;
10132;SDS011;5106;50.926;7.080;2022-12-01T13:00:25;23.47;;;15.83;;
10132;SDS011;5106;50.926;7.080;2022-12-01T13:03:01;23.67;;;14.40;;
10132;SDS011;5106;50.926;7.080;2022-12-01T13:08:24;22.53;;;15.07;;
10132;SDS011;5106;50.926;7.080;2022-12-01T13:16:09;22.30;;;14.83;;
10132;SDS011;5106;50.926;7.080;2022-12-01T13:21:09;23.43;;;15.90;;
10132;SDS011;5106;50.926;7.080;2022-12-01T13:23:41;23.50;;;15.17;;
10132;SDS011;5106;50.926;7.080;2022-12-01T13:26:07;21.90;;;14.73;;
10132;SDS011;5106;50.926;7.080;2022-12-01T13:28:36;22.60;;;14.60;;
10132;SDS011;5106;50.926;7.080;2022-12-01T13:31:10;23.93;;;14.57;;
10132;SDS011;5106;50.926;7.080;2022-12-01T13:33:40;21.97;;;15.47;;
10132;SDS011;5106;50.926;7.080;2022-12-01T13:36:17;22.43;;;15.73;;
10132;SDS011;5106;50.926;7.080;2022-12-01T13:38:42;23.67;;;16.03;;
10132;SDS011;5106;50.926;7.080;2022-12-01T13:43:48;24.67;;;15.53;;
10132;SDS011;5106;50.926;7.080;2022-12-01T13:57:33;25.83;;;16.90;;
10132;SDS011;5106;50.926;7.080;2022-12-01T14:02:33;23.83;;;16.40;;
10132;SDS011;5106;50.926;7.080;2022-12-01T14:08:03;24.17;;;15.20;;
10132;SDS011;5106;50.926;7.080;2022-12-01T14:16:24;24.00;;;15.20;;
10132;SDS011;5106;50.926;7.080;2022-12-01T14:24:58;22.17;;;15.20;;
10132;SDS011;5106;50.926;7.080;2022-12-01T14:36:19;23.00;;;15.33;;
10132;SDS011;5106;50.926;7.080;2022-12-01T14:38:49;24.23;;;15.43;;
10132;SDS011;5106;50.926;7.080;2022-12-01T14:41:26;23.63;;;16.17;;
10132;SDS011;5106;50.926;7.080;2022-12-01T14:43:55;21.93;;;15.43;;
10132;SDS011;5106;50.926;7.080;2022-12-01T14:46:27;22.17;;;15.43;;
10132;SDS011;5106;50.926;7.080;2022-12-01T14:48:56;23.20;;;15.43;;
10132;SDS011;5106;50.926;7.080;2022-12-01T14:51:26;27.30;;;15.97;;
10132;SDS011;5106;50.926;7.080;2022-12-01T14:53:55;23.67;;;15.30;;
10132;SDS011;5106;50.926;7.080;2022-12-01T14:56:22;21.47;;;14.47;;
10132;SDS011;5106;50.926;7.080;2022-12-01T14:58:50;21.77;;;14.60;;
10132;SDS011;5106;50.926;7.080;2022-12-01T15:01:21;21.47;;;13.93;;
10132;SDS011;5106;50.926;7.080;2022-12-01T15:03:48;20.43;;;14.37;;
10132;SDS011;5106;50.926;7.080;2022-12-01T15:06:16;21.13;;;13.63;;
10132;SDS011;5106;50.926;7.080;2022-12-01T15:08:43;18.87;;;13.63;;
10132;SDS011;5106;50.926;7.080;2022-12-01T15:11:18;20.67;;;13.70;;
10132;SDS011;5106;50.926;7.080;2022-12-01T15:13:50;20.53;;;14.40;;
10132;SDS011;5106;50.926;7.080;2022-12-01T15:16:29;20.70;;;14.63;;
10132;SDS011;5106;50.926;7.080;2022-12-01T15:18:56;21.80;;;15.47;;
10132;SDS011;5106;50.926;7.080;2022-12-01T15:21:26;25.13;;;16.83;;
10132;SDS011;5106;50.926;7.080;2022-12-01T15:24:04;24.93;;;16.27;;
10132;SDS011;5106;50.926;7.080;2022-12-01T15:26:45;23.33;;;15.43;;
10132;SDS011;5106;50.926;7.080;2022-12-01T15:29:28;25.87;;;15.93;;
10132;SDS011;5106;50.926;7.080;2022-12-01T15:32:00;23.73;;;16.40;;
10132;SDS011;5106;50.926;7.080;2022-12-01T15:34:41;21.63;;;15.60;;
10132;SDS011;5106;50.926;7.080;2022-12-01T15:37:10;23.27;;;15.77;;
10132;SDS011;5106;50.926;7.080;2022-12-01T15:39:42;22.93;;;15.27;;
10132;SDS011;5106;50.926;7.080;2022-12-01T15:42:20;21.47;;;13.63;;
10132;SDS011;5106;50.926;7.080;2022-12-01T15:45:02;22.27;;;14.50;;
10132;SDS011;5106;50.926;7.080;2022-12-01T15:47:45;18.90;;;13.73;;
10132;SDS011;5106;50.926;7.080;2022-12-01T15:50:26;22.70;;;15.50;;
10132;SDS011;5106;50.926;7.080;2022-12-01T15:53:05;20.60;;;14.70;;
10132;SDS011;5106;50.926;7.080;2022-12-01T15:55:49;21.20;;;14.20;;
10132;SDS011;5106;50.926;7.080;2022-12-01T15:58:18;20.70;;;14.63;;
10132;SDS011;5106;50.926;7.080;2022-12-01T16:00:56;20.13;;;15.10;;
10132;SDS011;5106;50.926;7.080;2022-12-01T16:03:23;20.83;;;13.90;;
10132;SDS011;5106;50.926;7.080;2022-12-01T16:05:49;21.23;;;14.30;;
10132;SDS011;5106;50.926;7.080;2022-12-01T16:08:19;19.77;;;14.03;;
10132;SDS011;5106;50.926;7.080;2022-12-01T16:16:48;22.20;;;13.90;;
10132;SDS011;5106;50.926;7.080;2022-12-01T16:24:16;20.20;;;14.27;;
10132;SDS011;5106;50.926;7.080;2022-12-01T16:27:06;22.30;;;14.43;;
10132;SDS011;5106;50.926;7.080;2022-12-01T16:29:53;21.10;;;14.17;;
10132;SDS011;5106;50.926;7.080;2022-12-01T16:34:56;19.20;;;14.33;;
10132;SDS011;5106;50.926;7.080;2022-12-01T16:37:22;21.23;;;14.43;;
10132;SDS011;5106;50.926;7.080;2022-12-01T16:39:48;23.43;;;14.77;;
10132;SDS011;5106;50.926;7.080;2022-12-01T16:42:14;23.03;;;14.93;;
10132;SDS011;5106;50.926;7.080;2022-12-01T16:44:41;23.53;;;16.20;;
10132;SDS011;5106;50.926;7.080;2022-12-01T16:47:11;21.77;;;15.47;;
10132;SDS011;5106;50.926;7.080;2022-12-01T16:49:38;20.00;;;14.70;;
10132;SDS011;5106;50.926;7.080;2022-12-01T16:52:04;20.90;;;14.97;;
10132;SDS011;5106;50.926;7.080;2022-12-01T16:54:30;21.33;;;14.93;;
10132;SDS011;5106;50.926;7.080;2022-12-01T16:56:55;22.63;;;16.00;;
10132;SDS011;5106;50.926;7.080;2022-12-01T16:59:21;20.93;;;14.10;;
10132;SDS011;5106;50.926;7.080;2022-12-01T17:01:46;21.37;;;14.77;;
10132;SDS011;5106;50.926;7.080;2022-12-01T17:04:12;21.13;;;13.93;;
10132;SDS011;5106;50.926;7.080;2022-12-01T17:06:37;21.03;;;14.87;;
10132;SDS011;5106;50.926;7.080;2022-12-01T17:09:03;18.23;;;13.77;;
10132;SDS011;5106;50.926;7.080;2022-12-01T17:11:29;18.53;;;14.27;;
10132;SDS011;5106;50.926;7.080;2022-12-01T17:13:56;20.30;;;14.43;;
10132;SDS011;5106;50.926;7.080;2022-12-01T17:16:21;20.27;;;14.43;;
10132;SDS011;5106;50.926;7.080;2022-12-01T17:18:47;21.80;;;14.63;;
10132;SDS011;5106;50.926;7.080;2022-12-01T17:21:13;19.80;;;14.20;;
10132;SDS011;5106;50.926;7.080;2022-12-01T17:23:38;19.13;;;13.60;;
10132;SDS011;5106;50.926;7.080;2022-12-01T17:26:11;21.00;;;14.57;;
10132;SDS011;5106;50.926;7.080;2022-12-01T17:28:41;23.00;;;15.00;;
10132;SDS011;5106;50.926;7.080;2022-12-01T17:31:07;22.30;;;15.00;;
10132;SDS011;5106;50.926;7.080;2022-12-01T17:33:33;20.27;;;14.40;;